sensor_id;sensor_type;location;lat;lon;timestamp;P1;durP1;ratioP1;P2;durP2;ratioP2
62588;SDS011;58504;48.770;9.148;2023-05-25T00:01:01;0.80;;;0.80;;
62588;SDS011;58504;48.770;9.148;2023-05-25T00:03:28;0.63;;;0.63;;
62588;SDS011;58504;48.770;9.148;2023-05-25T00:05:55;1.05;;;1.02;;
62588;SDS011;58504;48.770;9.148;2023-05-25T00:08:25;1.23;;;1.15;;
62588;SDS011;58504;48.770;9.148;2023-05-25T00:10:51;0.90;;;0.90;;
62588;SDS011;58504;48.770;9.148;2023-05-25T00:13:20;0.70;;;0.68;;
62588;SDS011;58504;48.770;9.148;2023-05-25T00:15:46;0.70;;;0.70;;
62588;SDS011;58504;48.770;9.148;2023-05-25T00:18:13;1.77;;;1.33;;
62588;SDS011;58504;48.770;9.148;2023-05-25T00:20:40;0.90;;;0.90;;
62588;SDS011;58504;48.770;9.148;2023-05-25T00:23:08;1.23;;;1.13;;
62588;SDS011;58504;48.770;9.148;2023-05-25T00:25:35;0.93;;;0.93;;
62588;SDS011;58504;48.770;9.148;2023-05-25T00:28:02;0.80;;;0.80;;
62588;SDS011;58504;48.770;9.148;2023-05-25T00:30:31;0.60;;;0.60;;
62588;SDS011;58504;48.770;9.148;2023-05-25T00:32:58;0.43;;;0.43;;
62588;SDS011;58504;48.770;9.148;2023-05-25T00:35:25;1.02;;;0.85;;
62588;SDS011;58504;48.770;9.148;2023-05-25T00:37:52;0.68;;;0.68;;
62588;SDS011;58504;48.770;9.148;2023-05-25T00:40:19;1.15;;;0.73;;
62588;SDS011;58504;48.770;9.148;2023-05-25T00:42:46;0.77;;;0.77;;
62588;SDS011;58504;48.770;9.148;2023-05-25T00:45:13;0.77;;;0.70;;
62588;SDS011;58504;48.770;9.148;2023-05-25T00:47:41;1.45;;;0.85;;
62588;SDS011;58504;48.770;9.148;2023-05-25T00:50:09;2.45;;;1.00;;
62588;SDS011;58504;48.770;9.148;2023-05-25T00:52:41;0.70;;;0.70;;
62588;SDS011;58504;48.770;9.148;2023-05-25T00:55:08;0.85;;;0.73;;
62588;SDS011;58504;48.770;9.148;2023-05-25T00:57:40;1.17;;;0.80;;
62588;SDS011;58504;48.770;9.148;2023-05-25T01:00:10;0.80;;;0.80;;
62588;SDS011;58504;48.770;9.148;2023-05-25T01:02:39;0.80;;;0.80;;
62588;SDS011;58504;48.770;9.148;2023-05-25T01:05:08;0.60;;;0.60;;
62588;SDS011;58504;48.770;9.148;2023-05-25T01:07:37;1.00;;;0.95;;
62588;SDS011;58504;48.770;9.148;2023-05-25T01:10:07;1.17;;;1.08;;
62588;SDS011;58504;48.770;9.148;2023-05-25T01:12:36;1.00;;;0.90;;
62588;SDS011;58504;48.770;9.148;2023-05-25T01:15:05;0.85;;;0.85;;
62588;SDS011;58504;48.770;9.148;2023-05-25T01:17:34;1.17;;;0.80;;
62588;SDS011;58504;48.770;9.148;2023-05-25T01:20:05;0.70;;;0.70;;
62588;SDS011;58504;48.770;9.148;2023-05-25T01:22:36;0.88;;;0.82;;
62588;SDS011;58504;48.770;9.148;2023-05-25T01:25:07;0.80;;;0.80;;
62588;SDS011;58504;48.770;9.148;2023-05-25T01:27:39;0.95;;;0.80;;
62588;SDS011;58504;48.770;9.148;2023-05-25T01:30:12;0.80;;;0.80;;
62588;SDS011;58504;48.770;9.148;2023-05-25T01:32:41;0.90;;;0.90;;
62588;SDS011;58504;48.770;9.148;2023-05-25T01:35:08;1.17;;;0.80;;
62588;SDS011;58504;48.770;9.148;2023-05-25T01:37:37;1.00;;;0.73;;
62588;SDS011;58504;48.770;9.148;2023-05-25T01:40:11;0.80;;;0.80;;
62588;SDS011;58504;48.770;9.148;2023-05-25T01:42:38;0.70;;;0.70;;
62588;SDS011;58504;48.770;9.148;2023-05-25T01:45:05;1.05;;;0.90;;
62588;SDS011;58504;48.770;9.148;2023-05-25T01:47:35;1.20;;;1.10;;
62588;SDS011;58504;48.770;9.148;2023-05-25T01:50:10;0.73;;;0.73;;
62588;SDS011;58504;48.770;9.148;2023-05-25T01:52:44;0.90;;;0.90;;
62588;SDS011;58504;48.770;9.148;2023-05-25T01:55:15;0.90;;;0.90;;
62588;SDS011;58504;48.770;9.148;2023-05-25T01:57:44;0.77;;;0.77;;
62588;SDS011;58504;48.770;9.148;2023-05-25T02:00:15;0.73;;;0.73;;
62588;SDS011;58504;48.770;9.148;2023-05-25T02:02:44;0.80;;;0.80;;
62588;SDS011;58504;48.770;9.148;2023-05-25T02:05:12;1.00;;;1.00;;
62588;SDS011;58504;48.770;9.148;2023-05-25T02:07:39;0.70;;;0.70;;
62588;SDS011;58504;48.770;9.148;2023-05-25T02:10:08;0.77;;;0.77;;
62588;SDS011;58504;48.770;9.148;2023-05-25T02:12:35;0.68;;;0.68;;
62588;SDS011;58504;48.770;9.148;2023-05-25T02:15:02;1.00;;;0.52;;
62588;SDS011;58504;48.770;9.148;2023-05-25T02:17:29;0.60;;;0.60;;
62588;SDS011;58504;48.770;9.148;2023-05-25T02:19:56;0.85;;;0.70;;
62588;SDS011;58504;48.770;9.148;2023-05-25T02:22:23;0.65;;;0.65;;
62588;SDS011;58504;48.770;9.148;2023-05-25T02:24:50;0.82;;;0.82;;
62588;SDS011;58504;48.770;9.148;2023-05-25T02:27:18;0.82;;;0.82;;
62588;SDS011;58504;48.770;9.148;2023-05-25T02:29:44;0.65;;;0.65;;
62588;SDS011;58504;48.770;9.148;2023-05-25T02:32:11;0.95;;;0.88;;
62588;SDS011;58504;48.770;9.148;2023-05-25T02:34:38;2.08;;;1.05;;
62588;SDS011;58504;48.770;9.148;2023-05-25T02:37:05;1.17;;;0.88;;
62588;SDS011;58504;48.770;9.148;2023-05-25T02:39:31;0.82;;;0.82;;
62588;SDS011;58504;48.770;9.148;2023-05-25T02:41:58;0.77;;;0.77;;
62588;SDS011;58504;48.770;9.148;2023-05-25T02:44:26;0.82;;;0.82;;
62588;SDS011;58504;48.770;9.148;2023-05-25T02:46:53;0.70;;;0.70;;
62588;SDS011;58504;48.770;9.148;2023-05-25T02:49:20;0.90;;;0.90;;
62588;SDS011;58504;48.770;9.148;2023-05-25T02:51:46;1.02;;;0.93;;
62588;SDS011;58504;48.770;9.148;2023-05-25T02:54:13;1.20;;;0.90;;
62588;SDS011;58504;48.770;9.148;2023-05-25T02:56:41;0.70;;;0.70;;
62588;SDS011;58504;48.770;9.148;2023-05-25T02:59:07;1.00;;;0.90;;
62588;SDS011;58504;48.770;9.148;2023-05-25T03:01:36;2.45;;;0.88;;
62588;SDS011;58504;48.770;9.148;2023-05-25T03:04:04;0.90;;;0.80;;
62588;SDS011;58504;48.770;9.148;2023-05-25T03:06:31;0.73;;;0.73;;
62588;SDS011;58504;48.770;9.148;2023-05-25T03:09:00;0.68;;;0.68;;
62588;SDS011;58504;48.770;9.148;2023-05-25T03:11:29;0.68;;;0.68;;
62588;SDS011;58504;48.770;9.148;2023-05-25T03:13:55;0.73;;;0.73;;
62588;SDS011;58504;48.770;9.148;2023-05-25T03:16:22;0.98;;;0.98;;
62588;SDS011;58504;48.770;9.148;2023-05-25T03:18:51;0.80;;;0.80;;
62588;SDS011;58504;48.770;9.148;2023-05-25T03:21:18;0.80;;;0.80;;
62588;SDS011;58504;48.770;9.148;2023-05-25T03:23:46;0.90;;;0.90;;
62588;SDS011;58504;48.770;9.148;2023-05-25T03:26:13;1.23;;;1.08;;
62588;SDS011;58504;48.770;9.148;2023-05-25T03:28:41;0.90;;;0.90;;
62588;SDS011;58504;48.770;9.148;2023-05-25T03:31:08;0.90;;;0.90;;
62588;SDS011;58504;48.770;9.148;2023-05-25T03:33:36;0.90;;;0.90;;
62588;SDS011;58504;48.770;9.148;2023-05-25T03:36:06;0.88;;;0.80;;
62588;SDS011;58504;48.770;9.148;2023-05-25T03:38:33;0.68;;;0.68;;
62588;SDS011;58504;48.770;9.148;2023-05-25T03:41:01;1.17;;;0.95;;
62588;SDS011;58504;48.770;9.148;2023-05-25T03:43:28;0.90;;;0.90;;
62588;SDS011;58504;48.770;9.148;2023-05-25T03:45:54;1.05;;;1.00;;
62588;SDS011;58504;48.770;9.148;2023-05-25T03:48:21;1.15;;;0.90;;
62588;SDS011;58504;48.770;9.148;2023-05-25T03:50:48;1.40;;;0.75;;
62588;SDS011;58504;48.770;9.148;2023-05-25T03:53:16;1.05;;;1.05;;
62588;SDS011;58504;48.770;9.148;2023-05-25T03:55:43;1.13;;;1.02;;
62588;SDS011;58504;48.770;9.148;2023-05-25T03:58:10;1.05;;;0.95;;
62588;SDS011;58504;48.770;9.148;2023-05-25T04:00:37;0.95;;;0.95;;
62588;SDS011;58504;48.770;9.148;2023-05-25T04:03:03;1.23;;;0.80;;
62588;SDS011;58504;48.770;9.148;2023-05-25T04:05:30;0.70;;;0.70;;
62588;SDS011;58504;48.770;9.148;2023-05-25T04:07:57;0.70;;;0.70;;
62588;SDS011;58504;48.770;9.148;2023-05-25T04:10:25;1.23;;;1.05;;
62588;SDS011;58504;48.770;9.148;2023-05-25T04:12:52;1.17;;;0.95;;
62588;SDS011;58504;48.770;9.148;2023-05-25T04:15:20;1.00;;;1.00;;
62588;SDS011;58504;48.770;9.148;2023-05-25T04:17:47;0.90;;;0.90;;
62588;SDS011;58504;48.770;9.148;2023-05-25T04:20:14;0.93;;;0.93;;
62588;SDS011;58504;48.770;9.148;2023-05-25T04:22:40;0.90;;;0.90;;
62588;SDS011;58504;48.770;9.148;2023-05-25T04:25:09;0.70;;;0.70;;
62588;SDS011;58504;48.770;9.148;2023-05-25T04:27:37;0.90;;;0.90;;
62588;SDS011;58504;48.770;9.148;2023-05-25T04:30:05;1.05;;;1.00;;
62588;SDS011;58504;48.770;9.148;2023-05-25T04:32:32;0.90;;;0.90;;
62588;SDS011;58504;48.770;9.148;2023-05-25T04:35:01;0.68;;;0.68;;
62588;SDS011;58504;48.770;9.148;2023-05-25T04:37:29;1.15;;;1.05;;
62588;SDS011;58504;48.770;9.148;2023-05-25T04:39:57;0.60;;;0.60;;
62588;SDS011;58504;48.770;9.148;2023-05-25T04:42:24;0.80;;;0.80;;
62588;SDS011;58504;48.770;9.148;2023-05-25T04:44:52;0.90;;;0.90;;
62588;SDS011;58504;48.770;9.148;2023-05-25T04:47:20;1.65;;;0.85;;
62588;SDS011;58504;48.770;9.148;2023-05-25T04:49:48;0.98;;;0.98;;
62588;SDS011;58504;48.770;9.148;2023-05-25T04:52:15;0.93;;;0.93;;
62588;SDS011;58504;48.770;9.148;2023-05-25T04:54:42;0.93;;;0.93;;
62588;SDS011;58504;48.770;9.148;2023-05-25T04:57:09;2.28;;;1.30;;
62588;SDS011;58504;48.770;9.148;2023-05-25T04:59:35;1.00;;;1.00;;
62588;SDS011;58504;48.770;9.148;2023-05-25T05:02:04;0.85;;;0.85;;
62588;SDS011;58504;48.770;9.148;2023-05-25T05:04:30;1.45;;;1.17;;
62588;SDS011;58504;48.770;9.148;2023-05-25T05:06:57;0.95;;;0.95;;
62588;SDS011;58504;48.770;9.148;2023-05-25T05:09:24;1.00;;;1.00;;
62588;SDS011;58504;48.770;9.148;2023-05-25T05:11:50;0.73;;;0.73;;
62588;SDS011;58504;48.770;9.148;2023-05-25T05:14:17;0.88;;;0.88;;
62588;SDS011;58504;48.770;9.148;2023-05-25T05:16:44;0.90;;;0.90;;
62588;SDS011;58504;48.770;9.148;2023-05-25T05:19:13;0.90;;;0.88;;
62588;SDS011;58504;48.770;9.148;2023-05-25T05:21:40;0.60;;;0.60;;
62588;SDS011;58504;48.770;9.148;2023-05-25T05:24:06;0.80;;;0.80;;
62588;SDS011;58504;48.770;9.148;2023-05-25T05:26:33;0.70;;;0.70;;
62588;SDS011;58504;48.770;9.148;2023-05-25T05:29:00;0.85;;;0.85;;
62588;SDS011;58504;48.770;9.148;2023-05-25T05:31:28;1.05;;;0.95;;
62588;SDS011;58504;48.770;9.148;2023-05-25T05:33:55;0.88;;;0.88;;
62588;SDS011;58504;48.770;9.148;2023-05-25T05:36:23;1.15;;;1.05;;
62588;SDS011;58504;48.770;9.148;2023-05-25T05:38:53;0.80;;;0.80;;
62588;SDS011;58504;48.770;9.148;2023-05-25T05:41:20;0.80;;;0.80;;
62588;SDS011;58504;48.770;9.148;2023-05-25T05:43:47;1.45;;;0.90;;
62588;SDS011;58504;48.770;9.148;2023-05-25T05:46:14;1.02;;;1.00;;
62588;SDS011;58504;48.770;9.148;2023-05-25T05:48:41;1.23;;;1.02;;
62588;SDS011;58504;48.770;9.148;2023-05-25T05:51:08;0.98;;;0.98;;
62588;SDS011;58504;48.770;9.148;2023-05-25T05:53:36;1.45;;;1.30;;
62588;SDS011;58504;48.770;9.148;2023-05-25T05:56:03;0.80;;;0.80;;
62588;SDS011;58504;48.770;9.148;2023-05-25T05:58:31;1.20;;;1.02;;
62588;SDS011;58504;48.770;9.148;2023-05-25T06:00:57;0.93;;;0.93;;
62588;SDS011;58504;48.770;9.148;2023-05-25T06:03:25;1.75;;;1.15;;
62588;SDS011;58504;48.770;9.148;2023-05-25T06:05:52;1.50;;;1.40;;
62588;SDS011;58504;48.770;9.148;2023-05-25T06:08:19;0.88;;;0.88;;
62588;SDS011;58504;48.770;9.148;2023-05-25T06:10:47;0.90;;;0.90;;
62588;SDS011;58504;48.770;9.148;2023-05-25T06:13:14;1.88;;;1.00;;
62588;SDS011;58504;48.770;9.148;2023-05-25T06:15:41;0.80;;;0.80;;
62588;SDS011;58504;48.770;9.148;2023-05-25T06:18:07;1.23;;;1.13;;
62588;SDS011;58504;48.770;9.148;2023-05-25T06:20:34;5.05;;;1.42;;
62588;SDS011;58504;48.770;9.148;2023-05-25T06:23:01;5.78;;;1.70;;
62588;SDS011;58504;48.770;9.148;2023-05-25T06:25:28;3.20;;;1.73;;
62588;SDS011;58504;48.770;9.148;2023-05-25T06:27:56;3.65;;;1.88;;
62588;SDS011;58504;48.770;9.148;2023-05-25T06:30:23;4.72;;;1.88;;
62588;SDS011;58504;48.770;9.148;2023-05-25T06:32:49;3.08;;;1.38;;
62588;SDS011;58504;48.770;9.148;2023-05-25T06:35:16;2.15;;;1.50;;
62588;SDS011;58504;48.770;9.148;2023-05-25T06:37:45;3.28;;;1.70;;
62588;SDS011;58504;48.770;9.148;2023-05-25T06:40:12;4.05;;;1.50;;
62588;SDS011;58504;48.770;9.148;2023-05-25T06:42:39;1.35;;;1.00;;
62588;SDS011;58504;48.770;9.148;2023-05-25T06:45:08;2.42;;;1.42;;
62588;SDS011;58504;48.770;9.148;2023-05-25T06:47:35;1.45;;;1.33;;
62588;SDS011;58504;48.770;9.148;2023-05-25T06:50:02;4.47;;;1.40;;
62588;SDS011;58504;48.770;9.148;2023-05-25T06:52:30;2.33;;;1.65;;
62588;SDS011;58504;48.770;9.148;2023-05-25T06:54:57;1.50;;;1.38;;
62588;SDS011;58504;48.770;9.148;2023-05-25T06:57:24;1.08;;;0.98;;
62588;SDS011;58504;48.770;9.148;2023-05-25T06:59:50;1.45;;;1.00;;
62588;SDS011;58504;48.770;9.148;2023-05-25T07:02:18;2.85;;;1.30;;
62588;SDS011;58504;48.770;9.148;2023-05-25T07:04:45;2.20;;;1.10;;
62588;SDS011;58504;48.770;9.148;2023-05-25T07:07:12;0.77;;;0.77;;
62588;SDS011;58504;48.770;9.148;2023-05-25T07:09:39;2.30;;;1.40;;
62588;SDS011;58504;48.770;9.148;2023-05-25T07:12:06;2.28;;;1.48;;
62588;SDS011;58504;48.770;9.148;2023-05-25T07:14:34;1.58;;;0.90;;
62588;SDS011;58504;48.770;9.148;2023-05-25T07:17:00;2.33;;;1.48;;
62588;SDS011;58504;48.770;9.148;2023-05-25T07:19:29;1.52;;;1.42;;
62588;SDS011;58504;48.770;9.148;2023-05-25T07:21:55;1.38;;;1.27;;
62588;SDS011;58504;48.770;9.148;2023-05-25T07:24:22;1.50;;;1.30;;
62588;SDS011;58504;48.770;9.148;2023-05-25T07:26:49;1.63;;;1.10;;
62588;SDS011;58504;48.770;9.148;2023-05-25T07:29:15;1.17;;;1.05;;
62588;SDS011;58504;48.770;9.148;2023-05-25T07:31:42;3.33;;;1.15;;
62588;SDS011;58504;48.770;9.148;2023-05-25T07:34:09;3.22;;;1.40;;
62588;SDS011;58504;48.770;9.148;2023-05-25T07:36:37;4.15;;;1.42;;
62588;SDS011;58504;48.770;9.148;2023-05-25T07:39:04;4.35;;;1.50;;
62588;SDS011;58504;48.770;9.148;2023-05-25T07:41:31;1.27;;;0.98;;
62588;SDS011;58504;48.770;9.148;2023-05-25T07:43:58;1.88;;;1.27;;
62588;SDS011;58504;48.770;9.148;2023-05-25T07:46:25;6.68;;;1.60;;
62588;SDS011;58504;48.770;9.148;2023-05-25T07:48:52;3.03;;;1.23;;
62588;SDS011;58504;48.770;9.148;2023-05-25T07:51:20;2.72;;;1.45;;
62588;SDS011;58504;48.770;9.148;2023-05-25T07:53:51;2.15;;;1.30;;
62588;SDS011;58504;48.770;9.148;2023-05-25T07:56:20;1.30;;;1.10;;
62588;SDS011;58504;48.770;9.148;2023-05-25T07:58:47;1.33;;;1.23;;
62588;SDS011;58504;48.770;9.148;2023-05-25T08:01:14;2.50;;;1.02;;
62588;SDS011;58504;48.770;9.148;2023-05-25T08:03:41;2.45;;;1.10;;
62588;SDS011;58504;48.770;9.148;2023-05-25T08:06:08;2.50;;;1.77;;
62588;SDS011;58504;48.770;9.148;2023-05-25T08:08:35;5.93;;;1.58;;
62588;SDS011;58504;48.770;9.148;2023-05-25T08:11:03;4.70;;;1.60;;
62588;SDS011;58504;48.770;9.148;2023-05-25T08:13:30;3.83;;;1.77;;
62588;SDS011;58504;48.770;9.148;2023-05-25T08:15:57;1.60;;;1.50;;
62588;SDS011;58504;48.770;9.148;2023-05-25T08:18:23;5.72;;;1.60;;
62588;SDS011;58504;48.770;9.148;2023-05-25T08:20:50;4.75;;;1.90;;
62588;SDS011;58504;48.770;9.148;2023-05-25T08:23:17;3.35;;;1.50;;
62588;SDS011;58504;48.770;9.148;2023-05-25T08:25:44;2.70;;;2.00;;
62588;SDS011;58504;48.770;9.148;2023-05-25T08:28:12;1.50;;;1.40;;
62588;SDS011;58504;48.770;9.148;2023-05-25T08:30:38;2.92;;;1.58;;
62588;SDS011;58504;48.770;9.148;2023-05-25T08:33:05;5.60;;;1.70;;
62588;SDS011;58504;48.770;9.148;2023-05-25T08:35:32;1.83;;;1.63;;
62588;SDS011;58504;48.770;9.148;2023-05-25T08:38:03;2.03;;;1.50;;
62588;SDS011;58504;48.770;9.148;2023-05-25T08:40:29;2.75;;;1.75;;
62588;SDS011;58504;48.770;9.148;2023-05-25T08:42:57;1.95;;;1.50;;
62588;SDS011;58504;48.770;9.148;2023-05-25T08:45:25;1.30;;;1.20;;
62588;SDS011;58504;48.770;9.148;2023-05-25T08:47:52;2.78;;;1.55;;
62588;SDS011;58504;48.770;9.148;2023-05-25T08:50:22;1.40;;;1.20;;
62588;SDS011;58504;48.770;9.148;2023-05-25T08:52:51;1.30;;;1.30;;
62588;SDS011;58504;48.770;9.148;2023-05-25T08:55:20;6.70;;;1.90;;
62588;SDS011;58504;48.770;9.148;2023-05-25T08:57:52;1.75;;;1.42;;
62588;SDS011;58504;48.770;9.148;2023-05-25T09:00:24;2.10;;;1.50;;
62588;SDS011;58504;48.770;9.148;2023-05-25T09:02:57;3.80;;;1.75;;
62588;SDS011;58504;48.770;9.148;2023-05-25T09:05:31;1.95;;;1.75;;
62588;SDS011;58504;48.770;9.148;2023-05-25T09:07:58;3.45;;;1.48;;
62588;SDS011;58504;48.770;9.148;2023-05-25T09:10:25;3.42;;;1.23;;
62588;SDS011;58504;48.770;9.148;2023-05-25T09:12:53;2.70;;;1.67;;
62588;SDS011;58504;48.770;9.148;2023-05-25T09:15:21;1.73;;;1.60;;
62588;SDS011;58504;48.770;9.148;2023-05-25T09:17:49;2.58;;;1.85;;
62588;SDS011;58504;48.770;9.148;2023-05-25T09:20:15;2.53;;;1.25;;
62588;SDS011;58504;48.770;9.148;2023-05-25T09:22:44;1.80;;;1.40;;
62588;SDS011;58504;48.770;9.148;2023-05-25T09:25:12;1.88;;;1.52;;
62588;SDS011;58504;48.770;9.148;2023-05-25T09:27:42;1.15;;;1.10;;
62588;SDS011;58504;48.770;9.148;2023-05-25T09:30:11;4.80;;;1.40;;
62588;SDS011;58504;48.770;9.148;2023-05-25T09:32:38;1.52;;;1.20;;
62588;SDS011;58504;48.770;9.148;2023-05-25T09:35:09;1.63;;;1.50;;
62588;SDS011;58504;48.770;9.148;2023-05-25T09:37:37;2.03;;;1.83;;
62588;SDS011;58504;48.770;9.148;2023-05-25T09:40:06;1.58;;;1.27;;
62588;SDS011;58504;48.770;9.148;2023-05-25T09:42:34;1.33;;;1.23;;
62588;SDS011;58504;48.770;9.148;2023-05-25T09:45:02;2.55;;;1.45;;
62588;SDS011;58504;48.770;9.148;2023-05-25T09:47:29;1.50;;;1.35;;
62588;SDS011;58504;48.770;9.148;2023-05-25T09:49:56;4.45;;;1.35;;
62588;SDS011;58504;48.770;9.148;2023-05-25T09:52:25;2.60;;;1.48;;
62588;SDS011;58504;48.770;9.148;2023-05-25T09:54:52;2.70;;;1.40;;
62588;SDS011;58504;48.770;9.148;2023-05-25T09:57:20;1.65;;;1.30;;
62588;SDS011;58504;48.770;9.148;2023-05-25T09:59:47;2.65;;;1.70;;
62588;SDS011;58504;48.770;9.148;2023-05-25T10:02:14;2.53;;;1.33;;
62588;SDS011;58504;48.770;9.148;2023-05-25T10:04:40;1.17;;;1.13;;
62588;SDS011;58504;48.770;9.148;2023-05-25T10:07:07;1.88;;;1.45;;
62588;SDS011;58504;48.770;9.148;2023-05-25T10:09:37;1.17;;;1.00;;
62588;SDS011;58504;48.770;9.148;2023-05-25T10:12:06;1.50;;;1.40;;
62588;SDS011;58504;48.770;9.148;2023-05-25T10:14:34;2.08;;;1.60;;
62588;SDS011;58504;48.770;9.148;2023-05-25T10:17:03;2.42;;;1.48;;
62588;SDS011;58504;48.770;9.148;2023-05-25T10:19:32;1.27;;;1.20;;
62588;SDS011;58504;48.770;9.148;2023-05-25T10:22:07;1.17;;;0.98;;
62588;SDS011;58504;48.770;9.148;2023-05-25T10:24:42;2.92;;;1.45;;
62588;SDS011;58504;48.770;9.148;2023-05-25T10:27:16;2.03;;;1.20;;
62588;SDS011;58504;48.770;9.148;2023-05-25T10:29:44;2.38;;;1.25;;
62588;SDS011;58504;48.770;9.148;2023-05-25T10:32:14;1.73;;;1.40;;
62588;SDS011;58504;48.770;9.148;2023-05-25T10:34:42;2.03;;;1.40;;
62588;SDS011;58504;48.770;9.148;2023-05-25T10:37:09;3.60;;;2.10;;
62588;SDS011;58504;48.770;9.148;2023-05-25T10:39:37;3.70;;;1.63;;
62588;SDS011;58504;48.770;9.148;2023-05-25T10:42:08;2.53;;;1.42;;
62588;SDS011;58504;48.770;9.148;2023-05-25T10:44:35;5.47;;;1.63;;
62588;SDS011;58504;48.770;9.148;2023-05-25T10:47:02;1.98;;;1.20;;
62588;SDS011;58504;48.770;9.148;2023-05-25T10:49:30;2.25;;;1.65;;
62588;SDS011;58504;48.770;9.148;2023-05-25T10:51:58;3.50;;;2.25;;
62588;SDS011;58504;48.770;9.148;2023-05-25T10:54:27;3.15;;;1.55;;
62588;SDS011;58504;48.770;9.148;2023-05-25T10:57:10;3.50;;;1.90;;
62588;SDS011;58504;48.770;9.148;2023-05-25T10:59:40;2.80;;;1.88;;
62588;SDS011;58504;48.770;9.148;2023-05-25T11:02:09;3.03;;;1.63;;
62588;SDS011;58504;48.770;9.148;2023-05-25T11:04:36;2.40;;;1.63;;
62588;SDS011;58504;48.770;9.148;2023-05-25T11:07:04;3.30;;;1.73;;
62588;SDS011;58504;48.770;9.148;2023-05-25T11:09:40;4.07;;;2.15;;
62588;SDS011;58504;48.770;9.148;2023-05-25T11:12:18;3.15;;;1.80;;
62588;SDS011;58504;48.770;9.148;2023-05-25T11:17:42;2.67;;;1.80;;
62588;SDS011;58504;48.770;9.148;2023-05-25T11:20:19;2.25;;;1.65;;
62588;SDS011;58504;48.770;9.148;2023-05-25T11:22:49;1.88;;;1.77;;
62588;SDS011;58504;48.770;9.148;2023-05-25T11:25:35;2.17;;;1.98;;
62588;SDS011;58504;48.770;9.148;2023-05-25T11:28:09;4.20;;;1.45;;
62588;SDS011;58504;48.770;9.148;2023-05-25T11:30:38;1.90;;;1.77;;
62588;SDS011;58504;48.770;9.148;2023-05-25T11:33:05;1.85;;;1.60;;
62588;SDS011;58504;48.770;9.148;2023-05-25T11:35:33;2.20;;;1.70;;
62588;SDS011;58504;48.770;9.148;2023-05-25T11:38:03;2.20;;;1.63;;
62588;SDS011;58504;48.770;9.148;2023-05-25T11:40:31;1.73;;;1.58;;
62588;SDS011;58504;48.770;9.148;2023-05-25T11:42:58;2.63;;;1.83;;
62588;SDS011;58504;48.770;9.148;2023-05-25T11:45:30;3.60;;;1.67;;
62588;SDS011;58504;48.770;9.148;2023-05-25T11:47:57;3.30;;;2.00;;
62588;SDS011;58504;48.770;9.148;2023-05-25T11:50:24;2.13;;;1.60;;
62588;SDS011;58504;48.770;9.148;2023-05-25T11:52:52;2.00;;;1.40;;
62588;SDS011;58504;48.770;9.148;2023-05-25T11:55:19;3.22;;;1.88;;
62588;SDS011;58504;48.770;9.148;2023-05-25T11:57:46;1.80;;;1.70;;
62588;SDS011;58504;48.770;9.148;2023-05-25T12:00:23;2.30;;;1.85;;
62588;SDS011;58504;48.770;9.148;2023-05-25T12:02:53;2.05;;;1.63;;
62588;SDS011;58504;48.770;9.148;2023-05-25T12:05:20;3.72;;;1.90;;
62588;SDS011;58504;48.770;9.148;2023-05-25T12:07:47;1.40;;;1.30;;
62588;SDS011;58504;48.770;9.148;2023-05-25T12:10:14;1.98;;;1.60;;
62588;SDS011;58504;48.770;9.148;2023-05-25T12:12:41;2.20;;;1.65;;
62588;SDS011;58504;48.770;9.148;2023-05-25T12:15:09;2.85;;;1.77;;
62588;SDS011;58504;48.770;9.148;2023-05-25T12:17:39;3.55;;;2.00;;
62588;SDS011;58504;48.770;9.148;2023-05-25T12:20:09;1.52;;;1.20;;
62588;SDS011;58504;48.770;9.148;2023-05-25T12:22:37;2.33;;;1.92;;
62588;SDS011;58504;48.770;9.148;2023-05-25T12:25:05;1.50;;;1.40;;
62588;SDS011;58504;48.770;9.148;2023-05-25T12:27:32;4.15;;;2.00;;
62588;SDS011;58504;48.770;9.148;2023-05-25T12:29:59;1.83;;;1.58;;
62588;SDS011;58504;48.770;9.148;2023-05-25T12:32:26;2.60;;;2.08;;
62588;SDS011;58504;48.770;9.148;2023-05-25T12:35:00;1.52;;;1.38;;
62588;SDS011;58504;48.770;9.148;2023-05-25T12:37:29;6.30;;;1.77;;
62588;SDS011;58504;48.770;9.148;2023-05-25T12:39:56;2.05;;;1.80;;
62588;SDS011;58504;48.770;9.148;2023-05-25T12:42:23;3.03;;;2.00;;
62588;SDS011;58504;48.770;9.148;2023-05-25T12:44:53;2.50;;;1.50;;
62588;SDS011;58504;48.770;9.148;2023-05-25T12:47:22;2.60;;;1.80;;
62588;SDS011;58504;48.770;9.148;2023-05-25T12:49:52;1.52;;;1.40;;
62588;SDS011;58504;48.770;9.148;2023-05-25T12:52:36;2.50;;;1.80;;
62588;SDS011;58504;48.770;9.148;2023-05-25T12:55:20;2.50;;;2.03;;
62588;SDS011;58504;48.770;9.148;2023-05-25T12:57:49;1.75;;;1.65;;
62588;SDS011;58504;48.770;9.148;2023-05-25T13:00:18;2.08;;;1.73;;
62588;SDS011;58504;48.770;9.148;2023-05-25T13:02:45;1.80;;;1.55;;
62588;SDS011;58504;48.770;9.148;2023-05-25T13:05:19;2.55;;;1.67;;
62588;SDS011;58504;48.770;9.148;2023-05-25T13:07:48;1.50;;;1.40;;
62588;SDS011;58504;48.770;9.148;2023-05-25T13:10:15;2.22;;;1.33;;
62588;SDS011;58504;48.770;9.148;2023-05-25T13:12:42;4.72;;;1.90;;
62588;SDS011;58504;48.770;9.148;2023-05-25T13:15:10;1.63;;;1.52;;
62588;SDS011;58504;48.770;9.148;2023-05-25T13:17:37;1.88;;;1.48;;
62588;SDS011;58504;48.770;9.148;2023-05-25T13:20:06;1.45;;;1.40;;
62588;SDS011;58504;48.770;9.148;2023-05-25T13:22:33;1.63;;;1.40;;
62588;SDS011;58504;48.770;9.148;2023-05-25T13:25:02;3.30;;;1.58;;
62588;SDS011;58504;48.770;9.148;2023-05-25T13:27:29;1.73;;;1.58;;
62588;SDS011;58504;48.770;9.148;2023-05-25T13:29:56;1.90;;;1.80;;
62588;SDS011;58504;48.770;9.148;2023-05-25T13:32:23;2.05;;;1.52;;
62588;SDS011;58504;48.770;9.148;2023-05-25T13:34:50;2.95;;;1.75;;
62588;SDS011;58504;48.770;9.148;2023-05-25T13:37:18;2.83;;;1.75;;
62588;SDS011;58504;48.770;9.148;2023-05-25T13:39:44;2.55;;;1.92;;
62588;SDS011;58504;48.770;9.148;2023-05-25T13:42:13;2.50;;;2.20;;
62588;SDS011;58504;48.770;9.148;2023-05-25T13:44:39;2.30;;;2.13;;
62588;SDS011;58504;48.770;9.148;2023-05-25T13:47:06;2.25;;;1.80;;
62588;SDS011;58504;48.770;9.148;2023-05-25T13:49:33;2.30;;;1.40;;
62588;SDS011;58504;48.770;9.148;2023-05-25T13:51:59;2.10;;;1.75;;
62588;SDS011;58504;48.770;9.148;2023-05-25T13:54:26;7.45;;;2.25;;
62588;SDS011;58504;48.770;9.148;2023-05-25T13:56:53;2.33;;;1.75;;
62588;SDS011;58504;48.770;9.148;2023-05-25T13:59:21;1.80;;;1.60;;
62588;SDS011;58504;48.770;9.148;2023-05-25T14:01:48;1.65;;;1.55;;
62588;SDS011;58504;48.770;9.148;2023-05-25T14:04:15;1.65;;;1.50;;
62588;SDS011;58504;48.770;9.148;2023-05-25T14:06:42;9.27;;;1.83;;
62588;SDS011;58504;48.770;9.148;2023-05-25T14:09:09;2.28;;;1.63;;
62588;SDS011;58504;48.770;9.148;2023-05-25T14:11:36;2.72;;;1.85;;
62588;SDS011;58504;48.770;9.148;2023-05-25T14:14:03;2.10;;;1.55;;
62588;SDS011;58504;48.770;9.148;2023-05-25T14:16:33;2.55;;;1.50;;
62588;SDS011;58504;48.770;9.148;2023-05-25T14:19:03;1.50;;;1.40;;
62588;SDS011;58504;48.770;9.148;2023-05-25T14:21:33;3.78;;;1.98;;
62588;SDS011;58504;48.770;9.148;2023-05-25T14:24:01;1.50;;;1.30;;
62588;SDS011;58504;48.770;9.148;2023-05-25T14:26:28;3.50;;;1.70;;
62588;SDS011;58504;48.770;9.148;2023-05-25T14:28:55;1.60;;;1.50;;
62588;SDS011;58504;48.770;9.148;2023-05-25T14:31:21;2.72;;;1.48;;
62588;SDS011;58504;48.770;9.148;2023-05-25T14:33:49;1.52;;;1.42;;
62588;SDS011;58504;48.770;9.148;2023-05-25T14:36:16;1.50;;;1.40;;
62588;SDS011;58504;48.770;9.148;2023-05-25T14:38:43;4.20;;;1.60;;
62588;SDS011;58504;48.770;9.148;2023-05-25T14:41:10;3.70;;;1.58;;
62588;SDS011;58504;48.770;9.148;2023-05-25T14:43:36;1.38;;;1.27;;
62588;SDS011;58504;48.770;9.148;2023-05-25T14:46:04;2.38;;;1.65;;
62588;SDS011;58504;48.770;9.148;2023-05-25T14:48:31;3.08;;;1.98;;
62588;SDS011;58504;48.770;9.148;2023-05-25T14:50:59;2.40;;;1.50;;
62588;SDS011;58504;48.770;9.148;2023-05-25T14:53:27;5.50;;;2.40;;
62588;SDS011;58504;48.770;9.148;2023-05-25T14:55:55;2.17;;;1.52;;